• Join FlightAware (Why Join?)
  • Login
  • US Flag 
09:20PM EST


 

Airport Tracker/Info


-or-


 

Live Flight TrackerFlight Track Log ✈ EJA982 ✈ 08-Jun-2013 ✈ KMDW - KOMA

Flight Track Log - Related Links

Times and Time Zones

All times are in EDT time to prevent confusion due to time zone crossing. See the EJA982 flight status page for this flight to view local times or setup timezone preferences in your user account.

Time Position Orientation Groundspeed Altitude Reporting Facility
EDT Latitude Longitude Course Direction KTS MPH feet Rate Location/Type
11:01AM 41.8000 -87.8333 270° West 231 266 2,800  Level Chicago TRACON
11:01AM 41.7936 -87.8483 240° Southwest 226 260 3,300 3,060 Climbing Chicago Center
11:02AM 41.7869 -87.9431 265° West 248 285 7,300 3,960 Climbing Chicago Center
11:03AM 41.7822 -88.0631 267° West 270 311 11,500 2,400 Climbing Chicago Center
11:04AM 41.7806 -88.1664 269° West 279 321 12,300 1,440 Climbing Chicago Center
11:05AM 41.7783 -88.2894 269° West 329 379 14,500 2,340 Climbing Chicago Center
11:06AM 41.7333 -88.5898 270° West  Level FlightAware Approximate
11:06AM 41.7758 -88.4169 269° West 344 396 17,100  Level Chicago Center
11:07AM 41.7731 -88.5478 268° West 352 405 19,600 1,980 Climbing Chicago Center
11:08AM 41.7681 -88.7103 268° West 366 421 21,200 1,380 Climbing Chicago Center
11:09AM 41.7650 -88.8578 268° West 395 455 22,500 1,560 Climbing Chicago Center
11:10AM 41.7617 -89.0081 268° West 407 468 24,500 1,740 Climbing Chicago Center
11:11AM 41.7603 -89.1594 269° West 408 470 26,100 1,560 Climbing Chicago Center
11:12AM 41.7589 -89.3136 269° West 417 480 27,800 1,680 Climbing Chicago Center
11:13AM 41.7575 -89.4692 269° West 420 483 29,600 1,740 Climbing Chicago Center
11:14AM 41.7528 -89.6303 268° West 432 497 31,400 1,620 Climbing Chicago Center
11:15AM 41.7494 -89.8231 269° West 435 501 33,000 780 Climbing Chicago Center
11:16AM 41.7447 -89.9928 268° West 449 517 33,000  Level Chicago Center
11:17AM 41.7406 -90.1686 268° West 468 539 33,000 300 Level Chicago Center
11:18AM 41.7364 -90.3447 268° West 474 545 33,700 840 Climbing Chicago Center
11:19AM 41.7311 -90.5139 268° West 463 533 34,800 600 Climbing Chicago Center
11:20AM 41.7264 -90.6914 268° West 434 499 35,000 60 Climbing Chicago Center
11:21AM 41.7219 -90.8531 268° West 435 501 35,000  Level Chicago Center
11:23AM 41.7164 -91.0161 267° West 441 507 35,000 240 Level Chicago Center
11:24AM 41.7117 -91.1744 268° West 432 497 35,500 480 Climbing Chicago Center
11:25AM 41.7058 -91.3283 267° West 419 482 36,000 240 Climbing Chicago Center
11:26AM 41.6994 -91.5231 268° West 437 503 36,000  Level Chicago Center
11:27AM 41.6939 -91.6836 267° West 436 502 36,000  Level Chicago Center
11:28AM 41.6881 -91.8442 267° West 434 499 36,000  Level Chicago Center
11:29AM 41.6811 -92.0067 267° West 441 507 36,000  Level Chicago Center
11:30AM 41.6744 -92.1681 267° West 437 503 36,000  Level Chicago Center
11:31AM 41.6678 -92.3261 267° West 431 496 36,000  Level Chicago Center
11:32AM 41.6594 -92.5225 267° West 443 510 36,000  Level Chicago Center
11:33AM 41.6522 -92.6822 267° West 438 504 36,000  Level Chicago Center
11:34AM 41.6450 -92.8294 266° West 432 497 36,000  Level Chicago Center
11:35AM 41.6392 -92.9553 266° West 430 495 36,000 -480 Level Minneapolis Center
11:36AM 41.6314 -93.1133 266° West 429 494 35,200 -840 Descending Minneapolis Center
11:37AM 41.6233 -93.2778 266° West 440 506 34,300 -600 Descending Minneapolis Center
11:38AM 41.6117 -93.4828 266° West 459 528 34,000 -180 Descending Minneapolis Center
11:39AM 41.6050 -93.6436 267° West 448 516 34,000  Level Minneapolis Center
11:40AM 41.5950 -93.8083 265° West 448 516 34,000  Level Minneapolis Center
11:41AM 41.5864 -93.9736 266° West 450 518 34,000 -1,080 Level Minneapolis Center
11:42AM 41.5769 -94.1383 266° West 450 518 31,800 -2,520 Descending Minneapolis Center
11:43AM 41.5658 -94.3250 266° West 462 532 28,900 -2,760 Descending Minneapolis Center
11:44AM 41.5547 -94.4975 265° West 465 535 26,200 -2,640 Descending Minneapolis Center
11:45AM 41.5436 -94.6681 265° West 463 533 23,500 -2,880 Descending Minneapolis Center
11:46AM 41.5308 -94.8658 265° West 451 519 20,300 -2,940 Descending Minneapolis Center
11:46AM 41.5397 -94.9356 280° West 434 499 19,300 -2,460 Descending Minneapolis Center
11:47AM 41.5203 -95.0214 253° West 426 490 17,800 -2,640 Descending Minneapolis Center
11:47AM 41.5256 -95.1100 275° West 409 471 16,400 -2,820 Descending Minneapolis Center
11:48AM 41.5119 -95.1711 253° West 410 472 14,900 -3,540 Descending Minneapolis Center
11:48AM 41.5150 -95.2564 273° West 401 461 12,900 -3,720 Descending Minneapolis Center
11:49AM 41.5039 -95.3169 256° West 401 461 11,100 -2,220 Descending Minneapolis Center
11:49AM 41.5056 -95.3883 272° West 333 383 10,700 -1,020 Descending Minneapolis Center
11:50AM 41.4981 -95.4311 257° West 342 394 10,100 -1,140 Descending Minneapolis Center
11:50AM 41.5003 -95.4922 273° West 264 304 9,600 -1,140 Descending Minneapolis Center
11:51AM 41.4942 -95.5336 259° West 303 349 9,000 -1,140 Descending Minneapolis Center
11:51AM 41.4969 -95.5956 273° West 271 312 8,500 -1,080 Descending Minneapolis Center
11:52AM 41.4928 -95.6367 262° West 288 331 7,900 -1,140 Descending Minneapolis Center
11:52AM 41.4953 -95.6958 273° West 274 315 7,400 -1,380 Descending Minneapolis Center
11:53AM 41.4942 -95.7539 269° West 275 316 6,500 -1,200 Descending Minneapolis Center
11:53AM 41.4961 -95.8017 273° West 264 304 6,200 -1,080 Descending Minneapolis Center
11:54AM 41.4947 -95.8483 268° West 266 306 5,400 -1,140 Descending Minneapolis Center
11:54AM 41.4917 -95.8911 265° West 243 280 5,100 -1,140 Descending Minneapolis Center
11:55AM 41.4847 -95.9369 259° West 254 292 4,300 -1,140 Descending Minneapolis Center
11:55AM 41.4786 -95.9817 260° West 254 292 4,000 -1,080 Descending Minneapolis Center
11:56AM 41.4636 -96.0178 241° Southwest 245 282 3,200 -900 Descending Minneapolis Center
11:57AM 41.4400 -96.0278 198° South 213 245 3,100 -240 Descending Minneapolis Center
11:57AM 41.4131 -95.9947 137° Southeast 222 255 3,000 -120 Descending Minneapolis Center
11:58AM 41.3975 -95.9883 163° South 170 196 3,000 -540 Level Minneapolis Center
11:58AM 41.3769 -95.9600 134° Southeast 187 215 2,500 -720 Descending Minneapolis Center
11:59AM 41.3661 -95.9558 164° South 135 155 2,300 -780 Descending Minneapolis Center
11:59AM 41.3433 -95.9272 137° Southeast 149 171 1,700 -660 Descending Minneapolis Center
12:00PM 41.3167 -95.9036 146° Southeast 128 147 1,100 -600 Descending Minneapolis Center
12:02PM 41.3032 -95.8941 159° South  Level Estimated